Terminal Aerodrome Forecast
Issued by NWS Sterling, VA

Current Version | Previous Version | Graphics & Text | Print | Product List | Glossary On
Versions: 1 2 3 4 5 6 7 8 9 10 11 12 13 14 15 16 17 18 19 20 21 22 23 24 25 26 27 28 29 30
000
FTUS41 KLWX 191133
TAFDCA
TAF
KDCA 191133Z 1912/2012 VRB03KT P6SM SCT003 OVC040
     FM191400 31005KT P6SM OVC050
     FM191800 26006KT P6SM VCTS SCT050CB BKN200
     FM200000 27007KT P6SM SCT050 BKN250
     FM201100 32011KT P6SM FEW250=

USA.gov is the U.S. government's official web portal to all federal, state and local government web resources and services.